sensor_id;sensor_type;location;lat;lon;timestamp;P1;durP1;ratioP1;P2;durP2;ratioP2
23384;SDS011;11865;45.394;10.978;2023-07-22T00:01:27;9.35;;;4.95;;
23384;SDS011;11865;45.394;10.978;2023-07-22T00:03:55;7.82;;;4.88;;
23384;SDS011;11865;45.394;10.978;2023-07-22T00:06:23;8.50;;;4.55;;
23384;SDS011;11865;45.394;10.978;2023-07-22T00:08:52;8.52;;;4.75;;
23384;SDS011;11865;45.394;10.978;2023-07-22T00:11:20;8.40;;;5.03;;
23384;SDS011;11865;45.394;10.978;2023-07-22T00:13:48;8.77;;;5.75;;
23384;SDS011;11865;45.394;10.978;2023-07-22T00:16:16;7.28;;;5.25;;
23384;SDS011;11865;45.394;10.978;2023-07-22T00:18:44;7.93;;;5.32;;
23384;SDS011;11865;45.394;10.978;2023-07-22T00:21:12;8.85;;;6.10;;
23384;SDS011;11865;45.394;10.978;2023-07-22T00:23:40;7.93;;;6.30;;
23384;SDS011;11865;45.394;10.978;2023-07-22T00:26:08;10.73;;;6.25;;
23384;SDS011;11865;45.394;10.978;2023-07-22T00:28:36;7.50;;;6.10;;
23384;SDS011;11865;45.394;10.978;2023-07-22T00:31:04;8.02;;;6.43;;
23384;SDS011;11865;45.394;10.978;2023-07-22T00:33:32;7.03;;;5.90;;
23384;SDS011;11865;45.394;10.978;2023-07-22T00:36:00;8.38;;;6.43;;
23384;SDS011;11865;45.394;10.978;2023-07-22T00:38:27;8.57;;;6.38;;
23384;SDS011;11865;45.394;10.978;2023-07-22T00:40:55;9.93;;;6.13;;
23384;SDS011;11865;45.394;10.978;2023-07-22T00:43:23;11.45;;;6.65;;
23384;SDS011;11865;45.394;10.978;2023-07-22T00:45:52;14.73;;;6.32;;
23384;SDS011;11865;45.394;10.978;2023-07-22T00:48:20;9.95;;;6.03;;
23384;SDS011;11865;45.394;10.978;2023-07-22T00:50:49;8.15;;;6.05;;
23384;SDS011;11865;45.394;10.978;2023-07-22T00:53:17;9.85;;;6.07;;
23384;SDS011;11865;45.394;10.978;2023-07-22T00:55:45;8.25;;;6.03;;
23384;SDS011;11865;45.394;10.978;2023-07-22T00:58:13;10.57;;;6.45;;
23384;SDS011;11865;45.394;10.978;2023-07-22T01:00:42;7.43;;;5.60;;
23384;SDS011;11865;45.394;10.978;2023-07-22T01:03:10;11.07;;;6.20;;
23384;SDS011;11865;45.394;10.978;2023-07-22T01:05:37;8.23;;;5.70;;
23384;SDS011;11865;45.394;10.978;2023-07-22T01:08:06;9.90;;;6.00;;
23384;SDS011;11865;45.394;10.978;2023-07-22T01:10:34;12.18;;;6.50;;
23384;SDS011;11865;45.394;10.978;2023-07-22T01:13:01;11.40;;;6.35;;
23384;SDS011;11865;45.394;10.978;2023-07-22T01:15:29;10.13;;;6.60;;
23384;SDS011;11865;45.394;10.978;2023-07-22T01:17:57;12.23;;;6.88;;
23384;SDS011;11865;45.394;10.978;2023-07-22T01:20:29;12.35;;;8.00;;
23384;SDS011;11865;45.394;10.978;2023-07-22T01:22:57;14.23;;;9.15;;
23384;SDS011;11865;45.394;10.978;2023-07-22T01:25:25;12.63;;;9.57;;
23384;SDS011;11865;45.394;10.978;2023-07-22T01:27:56;14.95;;;9.18;;
23384;SDS011;11865;45.394;10.978;2023-07-22T01:30:24;15.65;;;10.30;;
23384;SDS011;11865;45.394;10.978;2023-07-22T01:32:54;14.57;;;11.70;;
23384;SDS011;11865;45.394;10.978;2023-07-22T01:35:22;13.60;;;11.63;;
23384;SDS011;11865;45.394;10.978;2023-07-22T01:37:50;20.55;;;12.15;;
23384;SDS011;11865;45.394;10.978;2023-07-22T01:40:17;17.35;;;13.75;;
23384;SDS011;11865;45.394;10.978;2023-07-22T01:42:45;19.63;;;14.18;;
23384;SDS011;11865;45.394;10.978;2023-07-22T01:45:13;22.58;;;15.27;;
23384;SDS011;11865;45.394;10.978;2023-07-22T01:47:40;19.20;;;14.98;;
23384;SDS011;11865;45.394;10.978;2023-07-22T01:50:08;25.38;;;13.90;;
23384;SDS011;11865;45.394;10.978;2023-07-22T01:52:37;20.40;;;15.13;;
23384;SDS011;11865;45.394;10.978;2023-07-22T01:55:05;17.95;;;14.50;;
23384;SDS011;11865;45.394;10.978;2023-07-22T01:57:33;18.92;;;14.82;;
23384;SDS011;11865;45.394;10.978;2023-07-22T02:00:02;22.65;;;14.70;;
23384;SDS011;11865;45.394;10.978;2023-07-22T02:02:38;18.15;;;14.82;;
23384;SDS011;11865;45.394;10.978;2023-07-22T02:05:07;20.65;;;16.48;;
23384;SDS011;11865;45.394;10.978;2023-07-22T02:07:38;21.70;;;16.90;;
23384;SDS011;11865;45.394;10.978;2023-07-22T02:10:07;23.88;;;18.33;;
23384;SDS011;11865;45.394;10.978;2023-07-22T02:12:36;32.60;;;19.45;;
23384;SDS011;11865;45.394;10.978;2023-07-22T02:15:04;22.60;;;18.38;;
23384;SDS011;11865;45.394;10.978;2023-07-22T02:17:32;23.27;;;19.15;;
23384;SDS011;11865;45.394;10.978;2023-07-22T02:20:01;22.27;;;18.67;;
23384;SDS011;11865;45.394;10.978;2023-07-22T02:22:28;25.00;;;19.23;;
23384;SDS011;11865;45.394;10.978;2023-07-22T02:24:56;27.02;;;20.50;;
23384;SDS011;11865;45.394;10.978;2023-07-22T02:27:24;26.15;;;20.27;;
23384;SDS011;11865;45.394;10.978;2023-07-22T02:29:52;22.00;;;19.02;;
23384;SDS011;11865;45.394;10.978;2023-07-22T02:32:20;24.40;;;20.50;;
23384;SDS011;11865;45.394;10.978;2023-07-22T02:34:47;26.50;;;20.27;;
23384;SDS011;11865;45.394;10.978;2023-07-22T02:37:15;25.35;;;20.55;;
23384;SDS011;11865;45.394;10.978;2023-07-22T02:39:43;24.25;;;21.30;;
23384;SDS011;11865;45.394;10.978;2023-07-22T02:42:10;29.08;;;20.88;;
23384;SDS011;11865;45.394;10.978;2023-07-22T02:44:38;27.27;;;21.00;;
23384;SDS011;11865;45.394;10.978;2023-07-22T02:47:06;26.33;;;21.00;;
23384;SDS011;11865;45.394;10.978;2023-07-22T02:49:34;27.33;;;20.25;;
23384;SDS011;11865;45.394;10.978;2023-07-22T02:52:02;29.40;;;22.23;;
23384;SDS011;11865;45.394;10.978;2023-07-22T02:54:29;25.65;;;20.10;;
23384;SDS011;11865;45.394;10.978;2023-07-22T02:56:57;29.35;;;21.00;;
23384;SDS011;11865;45.394;10.978;2023-07-22T02:59:25;23.65;;;18.92;;
23384;SDS011;11865;45.394;10.978;2023-07-22T03:01:53;21.80;;;16.42;;
23384;SDS011;11865;45.394;10.978;2023-07-22T03:04:20;26.50;;;15.73;;
23384;SDS011;11865;45.394;10.978;2023-07-22T03:06:48;19.73;;;14.73;;
23384;SDS011;11865;45.394;10.978;2023-07-22T03:09:16;16.80;;;11.80;;
23384;SDS011;11865;45.394;10.978;2023-07-22T03:11:43;15.43;;;11.15;;
23384;SDS011;11865;45.394;10.978;2023-07-22T03:14:11;15.48;;;10.50;;
23384;SDS011;11865;45.394;10.978;2023-07-22T03:16:39;15.77;;;10.40;;
23384;SDS011;11865;45.394;10.978;2023-07-22T03:19:07;15.30;;;11.40;;
23384;SDS011;11865;45.394;10.978;2023-07-22T03:21:34;12.02;;;9.40;;
23384;SDS011;11865;45.394;10.978;2023-07-22T03:24:02;16.52;;;10.20;;
23384;SDS011;11865;45.394;10.978;2023-07-22T03:26:30;16.05;;;11.23;;
23384;SDS011;11865;45.394;10.978;2023-07-22T03:28:58;11.40;;;8.52;;
23384;SDS011;11865;45.394;10.978;2023-07-22T03:31:25;10.98;;;8.80;;
23384;SDS011;11865;45.394;10.978;2023-07-22T03:33:53;13.27;;;8.45;;
23384;SDS011;11865;45.394;10.978;2023-07-22T03:36:21;13.30;;;9.13;;
23384;SDS011;11865;45.394;10.978;2023-07-22T03:38:49;13.32;;;10.40;;
23384;SDS011;11865;45.394;10.978;2023-07-22T03:41:16;15.57;;;10.95;;
23384;SDS011;11865;45.394;10.978;2023-07-22T03:43:44;15.20;;;10.93;;
23384;SDS011;11865;45.394;10.978;2023-07-22T03:46:12;14.93;;;11.27;;
23384;SDS011;11865;45.394;10.978;2023-07-22T03:48:40;12.38;;;9.73;;
23384;SDS011;11865;45.394;10.978;2023-07-22T03:51:07;14.80;;;10.27;;
23384;SDS011;11865;45.394;10.978;2023-07-22T03:53:46;18.95;;;11.13;;
23384;SDS011;11865;45.394;10.978;2023-07-22T03:56:14;14.40;;;9.95;;
23384;SDS011;11865;45.394;10.978;2023-07-22T03:58:42;13.40;;;9.98;;
23384;SDS011;11865;45.394;10.978;2023-07-22T04:01:10;14.85;;;10.75;;
23384;SDS011;11865;45.394;10.978;2023-07-22T04:03:40;18.02;;;10.93;;
23384;SDS011;11865;45.394;10.978;2023-07-22T04:06:08;13.70;;;10.38;;
23384;SDS011;11865;45.394;10.978;2023-07-22T04:08:36;15.68;;;10.05;;
23384;SDS011;11865;45.394;10.978;2023-07-22T04:11:03;14.55;;;10.02;;
23384;SDS011;11865;45.394;10.978;2023-07-22T04:13:31;13.82;;;9.23;;
23384;SDS011;11865;45.394;10.978;2023-07-22T04:15:59;16.83;;;10.13;;
23384;SDS011;11865;45.394;10.978;2023-07-22T04:18:28;11.00;;;8.32;;
23384;SDS011;11865;45.394;10.978;2023-07-22T04:21:01;9.73;;;7.65;;
23384;SDS011;11865;45.394;10.978;2023-07-22T04:23:29;11.57;;;8.48;;
23384;SDS011;11865;45.394;10.978;2023-07-22T04:25:58;11.02;;;7.93;;
23384;SDS011;11865;45.394;10.978;2023-07-22T04:28:28;10.90;;;6.93;;
23384;SDS011;11865;45.394;10.978;2023-07-22T04:30:57;10.77;;;7.28;;
23384;SDS011;11865;45.394;10.978;2023-07-22T04:33:27;9.60;;;6.78;;
23384;SDS011;11865;45.394;10.978;2023-07-22T04:35:58;11.95;;;6.22;;
23384;SDS011;11865;45.394;10.978;2023-07-22T04:38:26;10.88;;;6.07;;
23384;SDS011;11865;45.394;10.978;2023-07-22T04:40:55;10.00;;;7.00;;
23384;SDS011;11865;45.394;10.978;2023-07-22T04:43:23;14.75;;;7.00;;
23384;SDS011;11865;45.394;10.978;2023-07-22T04:45:51;11.40;;;6.40;;
23384;SDS011;11865;45.394;10.978;2023-07-22T04:48:20;9.75;;;5.65;;
23384;SDS011;11865;45.394;10.978;2023-07-22T04:50:50;9.00;;;5.95;;
23384;SDS011;11865;45.394;10.978;2023-07-22T04:53:18;11.10;;;6.15;;
23384;SDS011;11865;45.394;10.978;2023-07-22T04:55:45;9.45;;;5.85;;
23384;SDS011;11865;45.394;10.978;2023-07-22T04:58:13;8.77;;;6.28;;
23384;SDS011;11865;45.394;10.978;2023-07-22T05:00:41;9.98;;;6.47;;
23384;SDS011;11865;45.394;10.978;2023-07-22T05:03:10;9.85;;;5.85;;
23384;SDS011;11865;45.394;10.978;2023-07-22T05:05:38;7.63;;;4.93;;
23384;SDS011;11865;45.394;10.978;2023-07-22T05:08:05;9.40;;;5.55;;
23384;SDS011;11865;45.394;10.978;2023-07-22T05:10:39;8.18;;;4.88;;
23384;SDS011;11865;45.394;10.978;2023-07-22T05:13:07;6.28;;;4.38;;
23384;SDS011;11865;45.394;10.978;2023-07-22T05:15:34;7.80;;;4.55;;
23384;SDS011;11865;45.394;10.978;2023-07-22T05:18:02;7.70;;;4.60;;
23384;SDS011;11865;45.394;10.978;2023-07-22T05:20:30;7.47;;;4.47;;
23384;SDS011;11865;45.394;10.978;2023-07-22T05:22:58;6.88;;;4.45;;
23384;SDS011;11865;45.394;10.978;2023-07-22T05:25:25;5.18;;;4.30;;
23384;SDS011;11865;45.394;10.978;2023-07-22T05:27:53;6.45;;;4.28;;
23384;SDS011;11865;45.394;10.978;2023-07-22T05:30:21;9.88;;;3.85;;
23384;SDS011;11865;45.394;10.978;2023-07-22T05:33:01;6.75;;;3.88;;
23384;SDS011;11865;45.394;10.978;2023-07-22T05:35:29;6.70;;;3.80;;
23384;SDS011;11865;45.394;10.978;2023-07-22T05:37:57;8.95;;;3.92;;
23384;SDS011;11865;45.394;10.978;2023-07-22T05:40:25;13.73;;;4.10;;
23384;SDS011;11865;45.394;10.978;2023-07-22T05:42:52;10.30;;;4.15;;
23384;SDS011;11865;45.394;10.978;2023-07-22T05:45:20;7.88;;;4.15;;
23384;SDS011;11865;45.394;10.978;2023-07-22T05:47:48;11.15;;;4.50;;
23384;SDS011;11865;45.394;10.978;2023-07-22T05:50:15;6.43;;;3.67;;
23384;SDS011;11865;45.394;10.978;2023-07-22T05:52:43;6.88;;;3.47;;
23384;SDS011;11865;45.394;10.978;2023-07-22T05:55:11;5.88;;;3.80;;
23384;SDS011;11865;45.394;10.978;2023-07-22T05:57:39;7.13;;;4.00;;
23384;SDS011;11865;45.394;10.978;2023-07-22T06:00:07;8.55;;;4.30;;
23384;SDS011;11865;45.394;10.978;2023-07-22T06:02:39;4.93;;;3.92;;
23384;SDS011;11865;45.394;10.978;2023-07-22T06:05:08;7.95;;;4.13;;
23384;SDS011;11865;45.394;10.978;2023-07-22T06:07:36;10.90;;;4.90;;
23384;SDS011;11865;45.394;10.978;2023-07-22T06:10:04;7.70;;;4.47;;
23384;SDS011;11865;45.394;10.978;2023-07-22T06:12:32;8.07;;;5.10;;
23384;SDS011;11865;45.394;10.978;2023-07-22T06:15:00;7.05;;;4.13;;
23384;SDS011;11865;45.394;10.978;2023-07-22T06:17:27;5.43;;;3.80;;
23384;SDS011;11865;45.394;10.978;2023-07-22T06:19:55;7.57;;;4.15;;
23384;SDS011;11865;45.394;10.978;2023-07-22T06:22:23;6.78;;;3.38;;
23384;SDS011;11865;45.394;10.978;2023-07-22T06:24:51;8.27;;;4.13;;
23384;SDS011;11865;45.394;10.978;2023-07-22T06:27:19;7.07;;;3.25;;
23384;SDS011;11865;45.394;10.978;2023-07-22T06:29:46;7.32;;;3.85;;
23384;SDS011;11865;45.394;10.978;2023-07-22T06:32:14;7.20;;;3.47;;
23384;SDS011;11865;45.394;10.978;2023-07-22T06:34:42;9.73;;;3.63;;
23384;SDS011;11865;45.394;10.978;2023-07-22T06:37:09;4.10;;;3.42;;
23384;SDS011;11865;45.394;10.978;2023-07-22T06:39:37;5.53;;;3.30;;
23384;SDS011;11865;45.394;10.978;2023-07-22T06:42:05;7.32;;;4.15;;
23384;SDS011;11865;45.394;10.978;2023-07-22T06:44:33;5.05;;;2.83;;
23384;SDS011;11865;45.394;10.978;2023-07-22T06:47:00;7.70;;;3.08;;
23384;SDS011;11865;45.394;10.978;2023-07-22T06:49:28;5.53;;;3.30;;
23384;SDS011;11865;45.394;10.978;2023-07-22T06:51:56;9.00;;;3.30;;
23384;SDS011;11865;45.394;10.978;2023-07-22T06:54:24;6.72;;;3.47;;
23384;SDS011;11865;45.394;10.978;2023-07-22T06:56:51;4.05;;;2.67;;
23384;SDS011;11865;45.394;10.978;2023-07-22T06:59:19;7.93;;;3.60;;
23384;SDS011;11865;45.394;10.978;2023-07-22T07:01:47;4.60;;;2.78;;
23384;SDS011;11865;45.394;10.978;2023-07-22T07:04:14;6.22;;;2.88;;
23384;SDS011;11865;45.394;10.978;2023-07-22T07:06:42;7.47;;;3.00;;
23384;SDS011;11865;45.394;10.978;2023-07-22T07:09:10;4.28;;;3.10;;
23384;SDS011;11865;45.394;10.978;2023-07-22T07:11:37;4.38;;;3.33;;
23384;SDS011;11865;45.394;10.978;2023-07-22T07:14:05;4.43;;;2.83;;
23384;SDS011;11865;45.394;10.978;2023-07-22T07:16:33;7.97;;;3.35;;
23384;SDS011;11865;45.394;10.978;2023-07-22T07:19:01;5.30;;;2.90;;
23384;SDS011;11865;45.394;10.978;2023-07-22T07:21:29;3.67;;;2.90;;
23384;SDS011;11865;45.394;10.978;2023-07-22T07:23:57;4.70;;;3.13;;
23384;SDS011;11865;45.394;10.978;2023-07-22T07:26:24;5.15;;;2.92;;
23384;SDS011;11865;45.394;10.978;2023-07-22T07:28:52;6.43;;;2.78;;
23384;SDS011;11865;45.394;10.978;2023-07-22T07:31:20;3.53;;;2.80;;
23384;SDS011;11865;45.394;10.978;2023-07-22T07:33:48;3.67;;;2.60;;
23384;SDS011;11865;45.394;10.978;2023-07-22T07:36:16;4.07;;;2.80;;
23384;SDS011;11865;45.394;10.978;2023-07-22T07:38:44;6.30;;;3.22;;
23384;SDS011;11865;45.394;10.978;2023-07-22T07:41:12;5.82;;;2.80;;
23384;SDS011;11865;45.394;10.978;2023-07-22T07:43:41;4.47;;;2.80;;
23384;SDS011;11865;45.394;10.978;2023-07-22T07:46:12;5.25;;;2.75;;
23384;SDS011;11865;45.394;10.978;2023-07-22T07:48:56;3.47;;;2.70;;
23384;SDS011;11865;45.394;10.978;2023-07-22T07:51:28;4.65;;;3.03;;
23384;SDS011;11865;45.394;10.978;2023-07-22T07:53:57;4.47;;;3.15;;
23384;SDS011;11865;45.394;10.978;2023-07-22T07:56:26;4.82;;;3.20;;
23384;SDS011;11865;45.394;10.978;2023-07-22T07:58:55;3.97;;;3.10;;
23384;SDS011;11865;45.394;10.978;2023-07-22T08:01:22;4.45;;;2.90;;
23384;SDS011;11865;45.394;10.978;2023-07-22T08:03:50;4.82;;;3.08;;
23384;SDS011;11865;45.394;10.978;2023-07-22T08:06:18;6.18;;;3.53;;
23384;SDS011;11865;45.394;10.978;2023-07-22T08:08:48;6.53;;;3.65;;
23384;SDS011;11865;45.394;10.978;2023-07-22T08:11:16;4.50;;;3.08;;
23384;SDS011;11865;45.394;10.978;2023-07-22T08:13:44;5.90;;;3.03;;
23384;SDS011;11865;45.394;10.978;2023-07-22T08:16:12;5.60;;;3.03;;
23384;SDS011;11865;45.394;10.978;2023-07-22T08:18:41;6.13;;;2.70;;
23384;SDS011;11865;45.394;10.978;2023-07-22T08:21:09;4.20;;;2.90;;
23384;SDS011;11865;45.394;10.978;2023-07-22T08:23:37;3.88;;;2.90;;
23384;SDS011;11865;45.394;10.978;2023-07-22T08:26:04;4.10;;;2.75;;
23384;SDS011;11865;45.394;10.978;2023-07-22T08:28:33;4.13;;;3.13;;
23384;SDS011;11865;45.394;10.978;2023-07-22T08:31:01;3.65;;;2.80;;
23384;SDS011;11865;45.394;10.978;2023-07-22T08:33:29;4.07;;;2.95;;
23384;SDS011;11865;45.394;10.978;2023-07-22T08:36:00;4.80;;;2.83;;
23384;SDS011;11865;45.394;10.978;2023-07-22T08:38:29;5.65;;;3.10;;
23384;SDS011;11865;45.394;10.978;2023-07-22T08:40:57;5.70;;;3.05;;
23384;SDS011;11865;45.394;10.978;2023-07-22T08:43:25;4.35;;;3.03;;
23384;SDS011;11865;45.394;10.978;2023-07-22T08:45:56;6.10;;;2.83;;
23384;SDS011;11865;45.394;10.978;2023-07-22T08:48:29;3.45;;;2.35;;
23384;SDS011;11865;45.394;10.978;2023-07-22T08:51:06;5.97;;;2.92;;
23384;SDS011;11865;45.394;10.978;2023-07-22T08:53:39;5.90;;;3.78;;
23384;SDS011;11865;45.394;10.978;2023-07-22T08:56:10;8.98;;;3.03;;
23384;SDS011;11865;45.394;10.978;2023-07-22T08:58:38;5.32;;;3.35;;
23384;SDS011;11865;45.394;10.978;2023-07-22T09:01:06;7.55;;;3.58;;
23384;SDS011;11865;45.394;10.978;2023-07-22T09:03:34;8.38;;;4.00;;
23384;SDS011;11865;45.394;10.978;2023-07-22T09:06:03;4.60;;;2.90;;
23384;SDS011;11865;45.394;10.978;2023-07-22T09:08:32;5.75;;;3.00;;
23384;SDS011;11865;45.394;10.978;2023-07-22T09:11:00;4.72;;;3.03;;
23384;SDS011;11865;45.394;10.978;2023-07-22T09:13:29;4.72;;;2.70;;
23384;SDS011;11865;45.394;10.978;2023-07-22T09:15:57;9.75;;;4.22;;
23384;SDS011;11865;45.394;10.978;2023-07-22T09:18:26;9.50;;;3.38;;
23384;SDS011;11865;45.394;10.978;2023-07-22T09:20:53;7.60;;;3.38;;
23384;SDS011;11865;45.394;10.978;2023-07-22T09:23:37;5.03;;;3.17;;
23384;SDS011;11865;45.394;10.978;2023-07-22T09:26:14;5.80;;;3.28;;
23384;SDS011;11865;45.394;10.978;2023-07-22T09:28:49;6.75;;;3.50;;
23384;SDS011;11865;45.394;10.978;2023-07-22T09:31:27;5.87;;;2.93;;
23384;SDS011;11865;45.394;10.978;2023-07-22T09:33:56;3.85;;;3.03;;
23384;SDS011;11865;45.394;10.978;2023-07-22T09:36:53;4.57;;;2.95;;
23384;SDS011;11865;45.394;10.978;2023-07-22T09:39:22;3.72;;;2.75;;
23384;SDS011;11865;45.394;10.978;2023-07-22T09:41:51;3.83;;;2.67;;
23384;SDS011;11865;45.394;10.978;2023-07-22T09:44:20;4.55;;;2.90;;
23384;SDS011;11865;45.394;10.978;2023-07-22T09:46:48;3.67;;;2.72;;
23384;SDS011;11865;45.394;10.978;2023-07-22T09:49:17;4.93;;;2.55;;
23384;SDS011;11865;45.394;10.978;2023-07-22T09:51:45;3.67;;;2.80;;
23384;SDS011;11865;45.394;10.978;2023-07-22T09:54:28;5.00;;;2.72;;
23384;SDS011;11865;45.394;10.978;2023-07-22T09:56:58;7.93;;;3.00;;
23384;SDS011;11865;45.394;10.978;2023-07-22T09:59:26;3.85;;;2.80;;
23384;SDS011;11865;45.394;10.978;2023-07-22T10:01:57;4.78;;;2.50;;
23384;SDS011;11865;45.394;10.978;2023-07-22T10:04:30;3.40;;;2.50;;
23384;SDS011;11865;45.394;10.978;2023-07-22T10:07:01;9.82;;;2.78;;
23384;SDS011;11865;45.394;10.978;2023-07-22T10:09:30;4.75;;;2.70;;
23384;SDS011;11865;45.394;10.978;2023-07-22T10:11:59;4.65;;;2.42;;
23384;SDS011;11865;45.394;10.978;2023-07-22T10:14:26;4.18;;;2.22;;
23384;SDS011;11865;45.394;10.978;2023-07-22T10:16:59;4.10;;;2.55;;
23384;SDS011;11865;45.394;10.978;2023-07-22T10:19:27;3.70;;;2.10;;
23384;SDS011;11865;45.394;10.978;2023-07-22T10:21:54;4.03;;;2.45;;
23384;SDS011;11865;45.394;10.978;2023-07-22T10:24:22;3.60;;;2.30;;
23384;SDS011;11865;45.394;10.978;2023-07-22T10:26:51;6.25;;;3.63;;
23384;SDS011;11865;45.394;10.978;2023-07-22T10:29:19;8.57;;;2.60;;
23384;SDS011;11865;45.394;10.978;2023-07-22T10:31:47;6.25;;;3.42;;
23384;SDS011;11865;45.394;10.978;2023-07-22T10:34:21;7.85;;;3.22;;
23384;SDS011;11865;45.394;10.978;2023-07-22T10:36:48;7.45;;;3.00;;
23384;SDS011;11865;45.394;10.978;2023-07-22T10:39:26;3.90;;;2.70;;
23384;SDS011;11865;45.394;10.978;2023-07-22T10:42:00;7.43;;;3.67;;
23384;SDS011;11865;45.394;10.978;2023-07-22T10:44:32;7.35;;;4.43;;
23384;SDS011;11865;45.394;10.978;2023-07-22T10:47:03;7.40;;;3.92;;
23384;SDS011;11865;45.394;10.978;2023-07-22T10:49:44;8.00;;;4.03;;
23384;SDS011;11865;45.394;10.978;2023-07-22T10:52:13;8.63;;;4.35;;
23384;SDS011;11865;45.394;10.978;2023-07-22T10:54:41;10.73;;;4.60;;
23384;SDS011;11865;45.394;10.978;2023-07-22T10:59:49;12.20;;;5.43;;
23384;SDS011;11865;45.394;10.978;2023-07-22T11:02:24;10.43;;;5.57;;
23384;SDS011;11865;45.394;10.978;2023-07-22T11:04:57;11.48;;;4.95;;
23384;SDS011;11865;45.394;10.978;2023-07-22T11:07:30;10.55;;;5.00;;
23384;SDS011;11865;45.394;10.978;2023-07-22T11:10:13;9.93;;;5.07;;
23384;SDS011;11865;45.394;10.978;2023-07-22T11:12:43;10.20;;;5.45;;
23384;SDS011;11865;45.394;10.978;2023-07-22T11:15:14;7.10;;;5.03;;
23384;SDS011;11865;45.394;10.978;2023-07-22T11:17:43;16.45;;;6.88;;
23384;SDS011;11865;45.394;10.978;2023-07-22T11:20:11;9.75;;;5.88;;
23384;SDS011;11865;45.394;10.978;2023-07-22T11:22:39;16.95;;;6.82;;
23384;SDS011;11865;45.394;10.978;2023-07-22T11:25:07;16.05;;;6.38;;
23384;SDS011;11865;45.394;10.978;2023-07-22T11:27:36;13.43;;;6.18;;
23384;SDS011;11865;45.394;10.978;2023-07-22T11:30:04;17.63;;;7.25;;
23384;SDS011;11865;45.394;10.978;2023-07-22T11:32:32;10.93;;;4.68;;
23384;SDS011;11865;45.394;10.978;2023-07-22T11:35:00;11.93;;;5.22;;
23384;SDS011;11865;45.394;10.978;2023-07-22T11:37:27;11.05;;;5.40;;
23384;SDS011;11865;45.394;10.978;2023-07-22T11:39:59;9.20;;;4.60;;
23384;SDS011;11865;45.394;10.978;2023-07-22T11:42:28;10.77;;;4.70;;
23384;SDS011;11865;45.394;10.978;2023-07-22T11:44:56;9.30;;;4.32;;
23384;SDS011;11865;45.394;10.978;2023-07-22T11:47:30;6.95;;;4.55;;
23384;SDS011;11865;45.394;10.978;2023-07-22T11:49:58;9.25;;;3.85;;
23384;SDS011;11865;45.394;10.978;2023-07-22T11:52:27;5.95;;;3.65;;
23384;SDS011;11865;45.394;10.978;2023-07-22T11:54:55;7.05;;;4.05;;
23384;SDS011;11865;45.394;10.978;2023-07-22T11:57:29;8.68;;;4.28;;
23384;SDS011;11865;45.394;10.978;2023-07-22T11:59:56;7.40;;;3.72;;
23384;SDS011;11865;45.394;10.978;2023-07-22T12:02:27;8.38;;;3.92;;
23384;SDS011;11865;45.394;10.978;2023-07-22T12:04:57;5.47;;;3.67;;
23384;SDS011;11865;45.394;10.978;2023-07-22T12:07:33;7.22;;;3.30;;
23384;SDS011;11865;45.394;10.978;2023-07-22T12:10:03;4.70;;;3.30;;
23384;SDS011;11865;45.394;10.978;2023-07-22T12:15:08;4.43;;;2.50;;
23384;SDS011;11865;45.394;10.978;2023-07-22T12:18:23;6.40;;;2.88;;
23384;SDS011;11865;45.394;10.978;2023-07-22T12:20:32;6.35;;;3.10;;
23384;SDS011;11865;45.394;10.978;2023-07-22T12:23:02;6.40;;;3.13;;
23384;SDS011;11865;45.394;10.978;2023-07-22T12:25:31;5.28;;;2.88;;
23384;SDS011;11865;45.394;10.978;2023-07-22T12:27:59;9.05;;;3.30;;
23384;SDS011;11865;45.394;10.978;2023-07-22T12:30:27;5.10;;;2.88;;
23384;SDS011;11865;45.394;10.978;2023-07-22T12:32:54;5.97;;;2.70;;
23384;SDS011;11865;45.394;10.978;2023-07-22T12:35:22;6.07;;;3.53;;
23384;SDS011;11865;45.394;10.978;2023-07-22T12:37:50;4.95;;;3.42;;
23384;SDS011;11865;45.394;10.978;2023-07-22T12:40:18;7.13;;;2.95;;
23384;SDS011;11865;45.394;10.978;2023-07-22T12:42:46;6.78;;;3.03;;
23384;SDS011;11865;45.394;10.978;2023-07-22T12:45:13;7.20;;;3.20;;
23384;SDS011;11865;45.394;10.978;2023-07-22T12:47:41;4.63;;;2.95;;
23384;SDS011;11865;45.394;10.978;2023-07-22T12:50:08;7.70;;;3.63;;
23384;SDS011;11865;45.394;10.978;2023-07-22T12:52:37;5.43;;;2.78;;
23384;SDS011;11865;45.394;10.978;2023-07-22T12:55:04;6.57;;;3.15;;
23384;SDS011;11865;45.394;10.978;2023-07-22T12:57:32;2.90;;;2.47;;
23384;SDS011;11865;45.394;10.978;2023-07-22T13:00:00;4.00;;;2.90;;
23384;SDS011;11865;45.394;10.978;2023-07-22T13:02:28;4.43;;;2.60;;
23384;SDS011;11865;45.394;10.978;2023-07-22T13:04:55;4.15;;;2.83;;
23384;SDS011;11865;45.394;10.978;2023-07-22T13:07:23;7.25;;;2.97;;
23384;SDS011;11865;45.394;10.978;2023-07-22T13:09:50;6.32;;;3.30;;
23384;SDS011;11865;45.394;10.978;2023-07-22T13:12:20;6.93;;;3.42;;
23384;SDS011;11865;45.394;10.978;2023-07-22T13:14:48;6.45;;;2.75;;
23384;SDS011;11865;45.394;10.978;2023-07-22T13:17:15;5.20;;;3.08;;
23384;SDS011;11865;45.394;10.978;2023-07-22T13:19:43;19.33;;;6.93;;
23384;SDS011;11865;45.394;10.978;2023-07-22T13:22:10;8.38;;;3.88;;
23384;SDS011;11865;45.394;10.978;2023-07-22T13:24:38;9.50;;;3.17;;
23384;SDS011;11865;45.394;10.978;2023-07-22T13:27:06;6.20;;;4.10;;
23384;SDS011;11865;45.394;10.978;2023-07-22T13:29:34;5.47;;;3.17;;
23384;SDS011;11865;45.394;10.978;2023-07-22T13:32:01;4.70;;;3.20;;
23384;SDS011;11865;45.394;10.978;2023-07-22T13:34:29;5.43;;;3.22;;
23384;SDS011;11865;45.394;10.978;2023-07-22T13:36:57;8.30;;;2.83;;
23384;SDS011;11865;45.394;10.978;2023-07-22T13:39:25;12.18;;;4.45;;
23384;SDS011;11865;45.394;10.978;2023-07-22T13:41:52;4.53;;;2.88;;
23384;SDS011;11865;45.394;10.978;2023-07-22T13:44:20;6.35;;;3.33;;
23384;SDS011;11865;45.394;10.978;2023-07-22T13:46:47;8.05;;;3.55;;
23384;SDS011;11865;45.394;10.978;2023-07-22T13:49:15;5.28;;;3.20;;
23384;SDS011;11865;45.394;10.978;2023-07-22T13:51:42;4.05;;;2.92;;
23384;SDS011;11865;45.394;10.978;2023-07-22T13:54:10;4.88;;;2.65;;
23384;SDS011;11865;45.394;10.978;2023-07-22T13:56:38;7.68;;;3.25;;
23384;SDS011;11865;45.394;10.978;2023-07-22T13:59:06;3.88;;;2.92;;
23384;SDS011;11865;45.394;10.978;2023-07-22T14:01:34;5.30;;;3.05;;
23384;SDS011;11865;45.394;10.978;2023-07-22T14:04:02;6.78;;;3.03;;
23384;SDS011;11865;45.394;10.978;2023-07-22T14:06:30;7.40;;;2.83;;
23384;SDS011;11865;45.394;10.978;2023-07-22T14:09:00;5.50;;;3.22;;
23384;SDS011;11865;45.394;10.978;2023-07-22T14:11:28;8.90;;;3.60;;
23384;SDS011;11865;45.394;10.978;2023-07-22T14:13:55;4.78;;;3.20;;
23384;SDS011;11865;45.394;10.978;2023-07-22T14:16:23;4.85;;;2.95;;
23384;SDS011;11865;45.394;10.978;2023-07-22T14:18:51;4.72;;;2.90;;
23384;SDS011;11865;45.394;10.978;2023-07-22T14:21:19;5.18;;;2.88;;
23384;SDS011;11865;45.394;10.978;2023-07-22T14:23:47;4.68;;;2.92;;
23384;SDS011;11865;45.394;10.978;2023-07-22T14:26:15;4.63;;;3.20;;
23384;SDS011;11865;45.394;10.978;2023-07-22T14:28:42;6.05;;;3.22;;
23384;SDS011;11865;45.394;10.978;2023-07-22T14:31:10;5.00;;;2.85;;
23384;SDS011;11865;45.394;10.978;2023-07-22T14:33:38;5.85;;;3.13;;
23384;SDS011;11865;45.394;10.978;2023-07-22T14:36:06;5.35;;;3.17;;
23384;SDS011;11865;45.394;10.978;2023-07-22T14:38:33;8.15;;;3.53;;
23384;SDS011;11865;45.394;10.978;2023-07-22T14:41:01;5.20;;;2.90;;
23384;SDS011;11865;45.394;10.978;2023-07-22T14:43:29;7.07;;;3.72;;